createdAt,value
2018-04-23T00:00:44.270Z,78.37
2018-04-23T00:03:12.680Z,78.10
2018-04-23T00:05:41.140Z,78.11
2018-04-23T00:08:09.544Z,78.22
2018-04-23T00:10:37.944Z,77.83
2018-04-23T00:13:06.413Z,77.74
2018-04-23T00:15:34.823Z,78.41
2018-04-23T00:18:03.223Z,79.45
2018-04-23T00:20:31.667Z,79.05
2018-04-23T00:23:00.123Z,79.36
2018-04-23T00:25:28.575Z,79.42
2018-04-23T00:27:57.004Z,79.40
2018-04-23T00:30:25.416Z,79.19
2018-04-23T00:32:53.828Z,79.48
2018-04-23T00:35:22.277Z,79.41
2018-04-23T00:37:50.692Z,79.39
2018-04-23T00:40:19.107Z,79.48
2018-04-23T00:42:47.561Z,79.68
2018-04-23T00:45:15.976Z,79.44
2018-04-23T00:47:44.388Z,79.77
2018-04-23T00:50:12.856Z,79.28
2018-04-23T00:52:41.268Z,79.98
2018-04-23T00:55:09.675Z,79.48
2018-04-23T00:57:38.140Z,79.25
2018-04-23T01:00:06.588Z,80.06
2018-04-23T01:02:35.004Z,79.87
2018-04-23T01:05:03.468Z,79.09
2018-04-23T01:07:31.876Z,78.91
2018-04-23T01:10:00.288Z,78.87
2018-04-23T01:12:28.764Z,78.93
2018-04-23T01:15:03.141Z,78.71
2018-04-23T01:17:31.619Z,78.80
2018-04-23T01:20:00.025Z,78.63
2018-04-23T01:22:28.432Z,78.74
2018-04-23T01:24:56.876Z,78.67
2018-04-23T01:27:25.290Z,79.29
2018-04-23T01:29:53.708Z,78.81
2018-04-23T01:32:22.156Z,78.51
2018-04-23T01:34:50.559Z,78.54
2018-04-23T01:37:18.973Z,79.02
2018-04-23T01:39:47.439Z,78.90
2018-04-23T01:42:15.851Z,79.09
2018-04-23T01:44:44.265Z,79.08
2018-04-23T01:47:12.720Z,79.54
2018-04-23T01:49:41.166Z,79.25
2018-04-23T01:52:09.588Z,79.93
2018-04-23T01:54:38.048Z,79.37
2018-04-23T01:57:06.449Z,79.29
2018-04-23T01:59:34.867Z,79.58
2018-04-23T02:02:03.343Z,79.93
2018-04-23T02:04:31.748Z,79.64
2018-04-23T02:07:00.156Z,79.83
2018-04-23T02:09:28.604Z,80.00
2018-04-23T02:11:57.024Z,80.26
2018-04-23T02:14:25.431Z,80.22
2018-04-23T02:16:53.926Z,79.78
2018-04-23T02:19:22.692Z,80.83
2018-04-23T02:21:51.106Z,80.52
2018-04-23T02:24:19.561Z,80.08
2018-04-23T02:26:47.970Z,80.33
2018-04-23T02:29:16.384Z,80.22
2018-04-23T02:31:44.885Z,80.67
2018-04-23T02:34:13.292Z,80.47
2018-04-23T02:36:41.709Z,80.49
2018-04-23T02:39:10.159Z,80.66
2018-04-23T02:41:38.576Z,81.51
2018-04-23T02:44:07.000Z,81.04
2018-04-23T02:46:35.464Z,81.44
2018-04-23T02:49:03.880Z,81.62
2018-04-23T02:51:32.309Z,81.39
2018-04-23T02:54:00.760Z,81.24
2018-04-23T02:56:29.176Z,80.55
2018-04-23T02:58:57.586Z,80.98
2018-04-23T03:01:26.040Z,80.62
2018-04-23T03:03:54.461Z,80.70
2018-04-23T03:06:22.887Z,80.62
2018-04-23T03:08:51.351Z,80.75
2018-04-23T03:11:19.776Z,81.22
2018-04-23T03:13:48.228Z,100.00
2018-04-23T03:16:16.775Z,100.00
2018-04-23T03:18:45.244Z,100.00
2018-04-23T03:21:13.735Z,100.00
2018-04-23T03:23:42.255Z,100.00
2018-04-23T03:26:10.728Z,100.00
2018-04-23T03:28:39.183Z,100.00
2018-04-23T03:31:07.684Z,100.00
2018-04-23T03:33:36.172Z,100.00
2018-04-23T03:36:04.619Z,100.00
2018-04-23T03:38:33.112Z,100.00
2018-04-23T03:41:01.559Z,100.00
2018-04-23T03:43:30.012Z,100.00
2018-04-23T03:45:58.503Z,100.00
2018-04-23T03:48:26.952Z,100.00
2018-04-23T03:50:55.389Z,100.00
2018-04-23T03:53:23.888Z,100.00
2018-04-23T03:55:52.332Z,100.00
2018-04-23T03:58:20.780Z,100.00
2018-04-23T04:00:49.260Z,100.00
2018-04-23T04:03:17.695Z,100.00
2018-04-23T04:05:46.153Z,100.00
2018-04-23T04:08:14.649Z,100.00
2018-04-23T04:10:43.076Z,100.00
2018-04-23T04:16:23.309Z,83.53
2018-04-23T04:18:51.792Z,83.79
2018-04-23T04:21:20.201Z,83.40
2018-04-23T04:23:48.641Z,82.97
2018-04-23T04:26:17.101Z,83.00
2018-04-23T04:28:45.516Z,81.53
2018-04-23T04:31:13.952Z,81.92
2018-04-23T04:33:42.619Z,81.69
2018-04-23T04:36:11.040Z,100.00
2018-04-23T04:38:39.468Z,100.00
2018-04-23T04:41:07.948Z,100.00
2018-04-23T04:43:36.416Z,100.00
2018-04-23T04:46:04.859Z,100.00
2018-04-23T04:48:33.331Z,100.00
2018-04-23T04:51:01.748Z,81.38
2018-04-23T04:53:30.170Z,100.00
2018-04-23T04:55:58.684Z,100.00
2018-04-23T04:58:27.108Z,100.00
2018-04-23T05:00:55.520Z,81.65
2018-04-23T05:03:23.968Z,82.04
2018-04-23T05:05:52.378Z,82.25
2018-04-23T05:08:20.800Z,82.29
2018-04-23T05:10:49.252Z,82.07
2018-04-23T05:13:17.672Z,82.28
2018-04-23T05:15:46.089Z,81.76
2018-04-23T05:18:14.536Z,81.65
2018-04-23T05:20:42.960Z,100.00
2018-04-23T05:23:11.384Z,100.00
2018-04-23T05:25:39.888Z,100.00
2018-04-23T05:28:08.328Z,100.00
2018-04-23T05:30:36.756Z,100.00
2018-04-23T05:33:05.252Z,100.00
2018-04-23T05:35:33.681Z,100.00
2018-04-23T05:38:02.116Z,100.00
2018-04-23T05:40:30.588Z,81.35
2018-04-23T05:42:59.020Z,81.03
2018-04-23T05:45:27.442Z,81.90
2018-04-23T05:47:55.915Z,81.54
2018-04-23T05:50:24.344Z,81.50
2018-04-23T05:52:52.763Z,82.24
2018-04-23T05:55:21.233Z,81.59
2018-04-23T05:57:49.647Z,81.47
2018-04-23T06:00:18.089Z,82.47
2018-04-23T06:02:46.557Z,81.47
2018-04-23T06:05:14.997Z,81.92
2018-04-23T06:07:43.416Z,82.64
2018-04-23T06:10:11.872Z,82.81
2018-04-23T06:12:40.293Z,82.01
2018-04-23T06:15:08.713Z,82.09
2018-04-23T06:17:37.172Z,82.75
2018-04-23T06:20:05.624Z,81.34
2018-04-23T06:22:34.048Z,82.11
2018-04-23T06:25:02.525Z,82.36
2018-04-23T06:27:30.950Z,82.53
2018-04-23T06:29:59.363Z,80.86
2018-04-23T06:32:27.826Z,81.67
2018-04-23T06:34:56.252Z,81.13
2018-04-23T06:37:24.676Z,80.88
2018-04-23T06:39:53.149Z,80.45
2018-04-23T06:42:21.576Z,80.34
2018-04-23T06:44:50.008Z,100.00
2018-04-23T06:47:18.500Z,100.00
2018-04-23T06:49:46.948Z,100.00
2018-04-23T06:52:15.372Z,80.27
2018-04-23T06:54:43.867Z,100.00
2018-04-23T06:57:12.296Z,79.94
2018-04-23T06:59:40.732Z,79.92
2018-04-23T07:02:09.199Z,80.05
2018-04-23T07:04:37.624Z,80.29
2018-04-23T07:07:06.064Z,80.14
2018-04-23T07:09:34.545Z,100.00
2018-04-23T07:12:02.992Z,80.63
2018-04-23T07:14:31.420Z,80.22
2018-04-23T07:16:59.893Z,100.00
2018-04-23T07:19:28.356Z,100.00
2018-04-23T07:21:56.808Z,100.00
2018-04-23T07:24:25.289Z,100.00
2018-04-23T07:26:53.728Z,79.33
2018-04-23T07:29:22.160Z,79.56
2018-04-23T07:31:50.665Z,100.00
2018-04-23T07:34:19.100Z,79.09
2018-04-23T07:36:47.568Z,100.00
2018-04-23T07:39:16.058Z,100.00
2018-04-23T07:41:44.505Z,100.00
2018-04-23T07:44:12.952Z,100.00
2018-04-23T07:46:41.468Z,100.00
2018-04-23T07:49:09.928Z,100.00
2018-04-23T07:51:38.384Z,100.00
2018-04-23T07:54:06.903Z,100.00
2018-04-23T07:56:35.357Z,100.00
2018-04-23T07:59:03.816Z,100.00
2018-04-23T08:01:32.342Z,100.00
2018-04-23T08:04:00.800Z,100.00
2018-04-23T08:06:29.286Z,100.00
2018-04-23T08:08:57.808Z,100.00
2018-04-23T08:11:26.265Z,100.00
2018-04-23T08:13:54.725Z,100.00
2018-04-23T08:16:23.236Z,100.00
2018-04-23T08:18:51.692Z,100.00
2018-04-23T08:21:20.155Z,100.00
2018-04-23T08:23:48.657Z,100.00
2018-04-23T08:26:17.100Z,100.00
2018-04-23T08:28:45.557Z,100.00
2018-04-23T08:31:14.046Z,100.00
2018-04-23T08:33:42.509Z,100.00
2018-04-23T08:36:10.950Z,100.00
2018-04-23T08:38:39.453Z,100.00
2018-04-23T08:41:07.900Z,100.00
2018-04-23T08:43:36.337Z,100.00
2018-04-23T08:46:04.863Z,100.00
2018-04-23T08:48:33.308Z,100.00
2018-04-23T08:51:01.760Z,100.00
2018-04-23T08:53:30.247Z,100.00
2018-04-23T08:55:58.693Z,100.00
2018-04-23T08:58:27.140Z,100.00
2018-04-23T09:00:55.632Z,100.00
2018-04-23T09:03:24.084Z,100.00
2018-04-23T09:05:52.551Z,100.00
2018-04-23T09:08:21.052Z,100.00
2018-04-23T09:10:49.489Z,100.00
2018-04-23T09:13:17.938Z,100.00
2018-04-23T09:15:46.424Z,100.00
2018-04-23T09:18:14.873Z,100.00
2018-04-23T09:20:43.332Z,100.00
2018-04-23T09:23:11.816Z,100.00
2018-04-23T09:25:40.272Z,100.00
2018-04-23T09:28:08.715Z,100.00
2018-04-23T09:30:37.232Z,100.00
2018-04-23T09:33:05.692Z,100.00
2018-04-23T09:35:34.153Z,100.00
2018-04-23T09:38:02.702Z,100.00
2018-04-23T09:40:31.176Z,100.00
2018-04-23T09:42:59.636Z,100.00
2018-04-23T09:45:28.131Z,100.00
2018-04-23T09:47:56.626Z,100.00
2018-04-23T09:50:25.077Z,100.00
2018-04-23T09:52:53.561Z,100.00
2018-04-23T09:55:22.011Z,100.00
2018-04-23T09:57:50.473Z,100.00
2018-04-23T10:00:24.497Z,100.00
2018-04-23T10:02:52.968Z,100.00
2018-04-23T10:05:21.418Z,100.00
2018-04-23T10:07:49.936Z,100.00
2018-04-23T10:10:18.424Z,100.00
2018-04-23T10:12:46.881Z,100.00
2018-04-23T10:15:15.381Z,100.00
2018-04-23T10:17:43.834Z,100.00
2018-04-23T10:20:12.280Z,100.00
2018-04-23T10:22:40.785Z,100.00
2018-04-23T10:25:09.249Z,100.00
2018-04-23T10:27:37.699Z,100.00
2018-04-23T10:30:06.192Z,100.00
2018-04-23T10:32:34.635Z,100.00
2018-04-23T10:35:03.123Z,100.00
2018-04-23T10:37:31.606Z,100.00
2018-04-23T10:40:00.048Z,100.00
2018-04-23T10:42:28.500Z,100.00
2018-04-23T10:44:56.993Z,100.00
2018-04-23T10:47:25.428Z,100.00
2018-04-23T10:49:53.884Z,100.00
2018-04-23T10:52:22.365Z,100.00
2018-04-23T10:54:50.808Z,100.00
2018-04-23T10:57:19.289Z,100.00
2018-04-23T10:59:47.792Z,100.00
2018-04-23T11:02:16.242Z,100.00
2018-04-23T11:04:44.680Z,100.00
2018-04-23T11:07:13.175Z,100.00
2018-04-23T11:09:41.632Z,100.00
2018-04-23T11:12:10.095Z,100.00
2018-04-23T11:14:38.580Z,100.00
2018-04-23T11:17:07.012Z,100.00
2018-04-23T11:19:35.456Z,100.00
2018-04-23T11:22:03.957Z,100.00
2018-04-23T11:24:32.397Z,100.00
2018-04-23T11:27:00.845Z,100.00
2018-04-23T11:29:29.360Z,100.00
2018-04-23T11:31:57.804Z,100.00
2018-04-23T11:34:26.244Z,100.00
2018-04-23T11:36:54.746Z,100.00
2018-04-23T11:39:23.227Z,100.00
2018-04-23T11:41:51.665Z,100.00
2018-04-23T11:44:20.135Z,100.00
2018-04-23T11:46:48.567Z,100.00
2018-04-23T11:49:17.014Z,100.00
2018-04-23T11:51:45.780Z,100.00
2018-04-23T11:54:14.213Z,100.00
2018-04-23T11:56:42.684Z,100.00
2018-04-23T11:59:11.170Z,100.00
2018-04-23T12:01:39.652Z,100.00
2018-04-23T12:04:08.120Z,100.00
2018-04-23T12:06:36.620Z,100.00
2018-04-23T12:09:06.614Z,100.00
2018-04-23T12:11:35.053Z,100.00
2018-04-23T12:14:03.581Z,100.00
2018-04-23T12:16:32.015Z,100.00
2018-04-23T12:19:00.449Z,100.00
2018-04-23T12:21:28.930Z,100.00
2018-04-23T12:23:57.352Z,100.00
2018-04-23T12:26:25.804Z,100.00
2018-04-23T12:28:54.280Z,100.00
2018-04-23T12:31:22.720Z,100.00
2018-04-23T12:33:51.164Z,100.00
2018-04-23T12:36:19.673Z,100.00
2018-04-23T12:38:48.104Z,100.00
2018-04-23T12:44:07.848Z,100.00
2018-04-23T12:46:36.288Z,100.00
2018-04-23T12:49:04.744Z,100.00
2018-04-23T12:51:33.225Z,100.00
2018-04-23T12:54:01.671Z,100.00
2018-04-23T12:56:30.109Z,100.00
2018-04-23T12:58:58.584Z,100.00
2018-04-23T13:01:27.054Z,100.00
2018-04-23T13:03:55.493Z,100.00
2018-04-23T13:06:23.988Z,100.00
2018-04-23T13:08:52.419Z,100.00
2018-04-23T13:11:20.863Z,100.00
2018-04-23T13:13:49.348Z,100.00
2018-04-23T13:16:17.788Z,100.00
2018-04-23T13:18:46.231Z,100.00
2018-04-23T13:21:14.713Z,100.00
2018-04-23T13:23:43.147Z,100.00
2018-04-23T13:26:11.617Z,100.00
2018-04-23T13:28:40.107Z,100.00
2018-04-23T13:31:08.540Z,100.00
2018-04-23T13:33:36.967Z,100.00
2018-04-23T13:36:05.436Z,100.00
2018-04-23T13:38:33.873Z,100.00
2018-04-23T13:41:02.312Z,100.00
2018-04-23T13:43:30.798Z,100.00
2018-04-23T13:45:59.238Z,100.00
2018-04-23T13:48:27.703Z,100.00
2018-04-23T13:50:56.192Z,100.00
2018-04-23T13:53:24.652Z,100.00
2018-04-23T13:55:53.081Z,100.00
2018-04-23T13:58:21.556Z,100.00
2018-04-23T14:00:49.987Z,100.00
2018-04-23T14:03:18.425Z,100.00
2018-04-23T14:05:46.905Z,100.00
2018-04-23T14:08:15.332Z,100.00
2018-04-23T14:10:43.780Z,100.00
2018-04-23T14:13:12.257Z,100.00
2018-04-23T14:15:40.700Z,100.00
2018-04-23T14:18:09.149Z,100.00
2018-04-23T14:20:37.629Z,100.00
2018-04-23T14:23:06.056Z,100.00
2018-04-23T14:25:34.500Z,100.00
2018-04-23T14:28:03.024Z,100.00
2018-04-23T14:30:31.485Z,100.00
2018-04-23T14:32:59.917Z,100.00
2018-04-23T14:35:28.429Z,100.00
2018-04-23T14:37:56.864Z,100.00
2018-04-23T14:40:25.311Z,100.00
2018-04-23T14:42:53.812Z,100.00
2018-04-23T14:45:22.265Z,100.00
2018-04-23T14:47:50.716Z,100.00
2018-04-23T14:50:19.192Z,100.00
2018-04-23T14:52:47.630Z,100.00
2018-04-23T14:55:16.080Z,100.00
2018-04-23T14:57:44.549Z,100.00
2018-04-23T15:00:12.977Z,100.00
2018-04-23T15:02:41.432Z,100.00
2018-04-23T15:05:09.919Z,100.00
2018-04-23T15:07:38.352Z,100.00
2018-04-23T15:10:06.815Z,100.00
2018-04-23T15:12:35.288Z,100.00
2018-04-23T15:15:03.758Z,100.00
2018-04-23T15:17:32.193Z,100.00
2018-04-23T15:20:00.692Z,100.00
2018-04-23T15:22:29.225Z,100.00
2018-04-23T15:24:57.678Z,100.00
2018-04-23T15:27:26.172Z,100.00
2018-04-23T15:29:54.618Z,100.00
2018-04-23T15:32:23.055Z,100.00
2018-04-23T15:34:51.553Z,100.00
2018-04-23T15:37:19.987Z,100.00
2018-04-23T15:39:48.412Z,100.00
2018-04-23T15:42:16.924Z,100.00
2018-04-23T15:44:45.426Z,100.00
2018-04-23T15:47:13.898Z,100.00
2018-04-23T15:49:42.373Z,100.00
2018-04-23T15:52:10.836Z,100.00
2018-04-23T15:54:39.276Z,100.00
2018-04-23T15:57:07.755Z,100.00
2018-04-23T15:59:36.208Z,100.00
2018-04-23T16:02:04.670Z,100.00
2018-04-23T16:04:33.163Z,100.00
2018-04-23T16:07:01.593Z,100.00
2018-04-23T16:09:30.040Z,100.00
2018-04-23T16:11:58.513Z,100.00
2018-04-23T16:14:26.948Z,100.00
2018-04-23T16:16:55.378Z,100.00
2018-04-23T16:19:23.864Z,100.00
2018-04-23T16:21:52.321Z,100.00
2018-04-23T16:24:20.764Z,100.00
2018-04-23T16:26:49.236Z,100.00
2018-04-23T16:29:17.684Z,100.00
2018-04-23T16:31:46.109Z,100.00
2018-04-23T16:34:14.585Z,100.00
2018-04-23T16:36:43.029Z,100.00
2018-04-23T16:39:11.475Z,100.00
2018-04-23T16:41:39.961Z,100.00
2018-04-23T16:44:08.421Z,100.00
2018-04-23T16:46:36.884Z,100.00
2018-04-23T16:49:05.392Z,100.00
2018-04-23T16:51:33.824Z,100.00
2018-04-23T16:54:02.268Z,100.00
2018-04-23T16:56:30.796Z,100.00
2018-04-23T16:58:59.242Z,100.00
2018-04-23T17:01:27.709Z,100.00
2018-04-23T17:03:56.237Z,100.00
2018-04-23T17:06:24.669Z,100.00
2018-04-23T17:08:53.116Z,100.00
2018-04-23T17:11:21.601Z,100.00
2018-04-23T17:13:50.043Z,100.00
2018-04-23T17:16:18.483Z,100.00
2018-04-23T17:18:46.965Z,100.00
2018-04-23T17:21:15.418Z,100.00
2018-04-23T17:23:43.876Z,100.00
2018-04-23T17:26:12.477Z,100.00
2018-04-23T17:28:40.911Z,100.00
2018-04-23T17:31:09.349Z,100.00
2018-04-23T17:33:37.856Z,100.00
2018-04-23T17:36:06.295Z,100.00
2018-04-23T17:38:34.745Z,100.00
2018-04-23T17:41:03.245Z,100.00
2018-04-23T17:43:31.694Z,100.00
2018-04-23T17:46:00.132Z,100.00
2018-04-23T17:48:28.624Z,100.00
2018-04-23T17:50:57.466Z,100.00
2018-04-23T17:53:25.900Z,100.00
2018-04-23T17:55:54.391Z,100.00
2018-04-23T17:58:22.842Z,100.00
2018-04-23T18:00:51.307Z,100.00
2018-04-23T18:03:19.805Z,100.00
2018-04-23T18:05:48.240Z,100.00
2018-04-23T18:08:16.912Z,100.00
2018-04-23T18:10:45.393Z,100.00
2018-04-23T18:13:13.839Z,100.00
2018-04-23T18:15:42.308Z,100.00
2018-04-23T18:18:10.788Z,100.00
2018-04-23T18:20:39.237Z,100.00
2018-04-23T18:23:07.693Z,100.00
2018-04-23T18:25:36.200Z,100.00
2018-04-23T18:28:04.681Z,100.00
2018-04-23T18:30:33.113Z,100.00
2018-04-23T18:33:01.624Z,100.00
2018-04-23T18:36:33.194Z,55.64
2018-04-23T18:39:01.672Z,54.81
2018-04-23T18:41:30.103Z,55.09
2018-04-23T18:43:58.533Z,55.63
2018-04-23T18:46:26.983Z,55.01
2018-04-23T18:48:55.394Z,56.24
2018-04-23T18:51:23.811Z,55.38
2018-04-23T18:53:52.268Z,55.47
2018-04-23T18:56:20.689Z,55.94
2018-04-23T18:58:49.130Z,56.91
2018-04-23T19:01:17.636Z,56.88
2018-04-23T19:03:46.065Z,58.33
2018-04-23T19:06:14.488Z,58.46
2018-04-23T19:08:43.018Z,58.55
2018-04-23T19:11:11.409Z,58.75
2018-04-23T19:13:39.825Z,58.55
2018-04-23T19:16:08.329Z,59.07
2018-04-23T19:18:36.760Z,58.88
2018-04-23T19:21:05.180Z,59.45
2018-04-23T19:23:33.639Z,59.13
2018-04-23T19:26:02.073Z,59.20
2018-04-23T19:28:30.490Z,59.69
2018-04-23T19:30:58.944Z,60.37
2018-04-23T19:33:27.353Z,61.33
2018-04-23T19:35:55.774Z,61.30
2018-04-23T19:38:24.232Z,62.48
2018-04-23T19:40:52.655Z,63.34
2018-04-23T19:43:21.084Z,63.92
2018-04-23T19:45:49.536Z,63.27
2018-04-23T19:48:17.956Z,63.33
2018-04-23T19:50:46.372Z,63.38
2018-04-23T19:53:14.829Z,63.30
2018-04-23T19:58:16.929Z,62.63
2018-04-23T20:00:45.380Z,63.15
2018-04-23T20:03:13.797Z,62.39
2018-04-23T20:05:42.268Z,61.77
2018-04-23T20:08:10.680Z,61.88
2018-04-23T20:10:39.100Z,61.60
2018-04-23T20:13:07.548Z,61.88
2018-04-23T20:15:35.965Z,61.72
2018-04-23T20:18:04.388Z,61.89
2018-04-23T20:20:32.845Z,62.03
2018-04-23T20:23:01.310Z,62.54
2018-04-23T20:25:29.771Z,62.42
2018-04-23T20:27:58.245Z,63.44
2018-04-23T20:30:26.660Z,63.82
2018-04-23T20:32:55.077Z,64.33
2018-04-23T20:35:23.547Z,64.42
2018-04-23T20:37:51.960Z,64.18
2018-04-23T20:40:20.373Z,64.66
2018-04-23T20:42:48.828Z,64.24
2018-04-23T20:45:17.251Z,64.51
2018-04-23T20:47:45.695Z,64.66
2018-04-23T20:50:14.207Z,65.25
2018-04-23T20:52:42.619Z,65.25
2018-04-23T20:55:11.037Z,65.51
2018-04-23T20:57:39.621Z,65.72
2018-04-23T21:00:08.065Z,65.82
2018-04-23T21:02:36.468Z,65.59
2018-04-23T21:05:05.169Z,65.61
2018-04-23T21:07:33.587Z,65.30
2018-04-23T21:10:02.034Z,65.51
2018-04-23T21:12:30.505Z,65.50
2018-04-23T21:14:58.923Z,65.68
2018-04-23T21:17:27.340Z,65.54
2018-04-23T21:19:55.814Z,65.51
2018-04-23T21:22:24.262Z,65.60
2018-04-23T21:24:52.704Z,65.79
2018-04-23T21:27:21.155Z,66.43
2018-04-23T21:29:49.586Z,66.52
2018-04-23T21:32:18.014Z,67.39
2018-04-23T21:34:46.474Z,67.36
2018-04-23T21:37:14.889Z,67.50
2018-04-23T21:39:43.304Z,67.29
2018-04-23T21:42:11.756Z,67.20
2018-04-23T21:44:40.161Z,67.29
2018-04-23T21:47:08.576Z,67.64
2018-04-23T21:49:37.037Z,67.67
2018-04-23T21:52:05.480Z,67.80
2018-04-23T21:54:33.897Z,67.74
2018-04-23T21:57:02.351Z,68.02
2018-04-23T21:59:30.755Z,69.07
2018-04-23T22:01:59.206Z,68.86
2018-04-23T22:04:27.682Z,68.62
2018-04-23T22:06:56.096Z,68.65
2018-04-23T22:09:24.519Z,68.71
2018-04-23T22:11:52.984Z,68.76
2018-04-23T22:14:21.412Z,68.71
2018-04-23T22:16:49.862Z,68.89
2018-04-23T22:19:18.402Z,68.75
2018-04-23T22:21:46.828Z,69.04
2018-04-23T22:24:15.240Z,68.95
2018-04-23T22:26:43.732Z,68.99
2018-04-23T22:29:12.150Z,69.21
2018-04-23T22:31:40.560Z,69.37
2018-04-23T22:34:09.016Z,69.77
2018-04-23T22:36:37.428Z,69.50
2018-04-23T22:39:05.872Z,69.56
2018-04-23T22:41:34.341Z,69.59
2018-04-23T22:44:02.777Z,69.51
2018-04-23T22:46:31.192Z,70.41
2018-04-23T22:48:59.650Z,70.37
2018-04-23T22:51:28.064Z,70.51
2018-04-23T22:53:56.480Z,70.80
2018-04-23T22:56:24.944Z,70.37
2018-04-23T22:58:53.360Z,70.49
2018-04-23T23:01:21.778Z,70.62
2018-04-23T23:03:50.419Z,70.73
2018-04-23T23:06:18.828Z,71.07
2018-04-23T23:08:47.238Z,71.74
2018-04-23T23:11:15.684Z,71.05
2018-04-23T23:13:44.096Z,70.97
2018-04-23T23:16:12.512Z,70.86
2018-04-23T23:18:40.972Z,70.91
2018-04-23T23:21:09.384Z,71.04
2018-04-23T23:23:37.800Z,71.09
2018-04-23T23:26:06.260Z,71.25
2018-04-23T23:28:34.676Z,71.24
2018-04-23T23:31:03.086Z,71.77
2018-04-23T23:33:31.543Z,72.49
2018-04-23T23:35:59.957Z,71.96
2018-04-23T23:38:28.373Z,72.32
2018-04-23T23:40:56.826Z,72.19
2018-04-23T23:43:25.239Z,73.39
2018-04-23T23:45:53.668Z,72.51
2018-04-23T23:48:22.121Z,72.40
2018-04-23T23:50:50.552Z,72.34
2018-04-23T23:53:18.962Z,72.79
2018-04-23T23:55:47.432Z,72.53
2018-04-23T23:58:15.845Z,72.11
